sensor_id;sensor_type;location;lat;lon;timestamp;P1;durP1;ratioP1;P2;durP2;ratioP2
37955;SDS011;23776;51.592;7.180;2023-05-23T00:01:45;21.80;;;12.88;;
37955;SDS011;23776;51.592;7.180;2023-05-23T00:04:11;18.08;;;10.90;;
37955;SDS011;23776;51.592;7.180;2023-05-23T00:06:42;20.23;;;10.88;;
37955;SDS011;23776;51.592;7.180;2023-05-23T00:09:14;19.85;;;12.23;;
37955;SDS011;23776;51.592;7.180;2023-05-23T00:11:40;20.73;;;12.10;;
37955;SDS011;23776;51.592;7.180;2023-05-23T00:14:10;22.75;;;12.00;;
37955;SDS011;23776;51.592;7.180;2023-05-23T00:16:37;20.17;;;12.27;;
37955;SDS011;23776;51.592;7.180;2023-05-23T00:19:05;22.20;;;12.63;;
37955;SDS011;23776;51.592;7.180;2023-05-23T00:21:31;18.88;;;10.95;;
37955;SDS011;23776;51.592;7.180;2023-05-23T00:23:57;15.93;;;9.20;;
37955;SDS011;23776;51.592;7.180;2023-05-23T00:26:23;13.10;;;8.32;;
37955;SDS011;23776;51.592;7.180;2023-05-23T00:28:49;14.55;;;7.65;;
37955;SDS011;23776;51.592;7.180;2023-05-23T00:31:14;13.05;;;7.85;;
37955;SDS011;23776;51.592;7.180;2023-05-23T00:33:40;10.18;;;6.80;;
37955;SDS011;23776;51.592;7.180;2023-05-23T00:36:06;8.90;;;6.20;;
37955;SDS011;23776;51.592;7.180;2023-05-23T00:38:31;10.10;;;6.55;;
37955;SDS011;23776;51.592;7.180;2023-05-23T00:40:57;10.95;;;6.65;;
37955;SDS011;23776;51.592;7.180;2023-05-23T00:43:23;10.00;;;6.40;;
37955;SDS011;23776;51.592;7.180;2023-05-23T00:45:49;8.57;;;5.85;;
37955;SDS011;23776;51.592;7.180;2023-05-23T00:48:15;11.27;;;5.95;;
37955;SDS011;23776;51.592;7.180;2023-05-23T00:50:41;11.55;;;5.85;;
37955;SDS011;23776;51.592;7.180;2023-05-23T00:53:07;11.10;;;6.68;;
37955;SDS011;23776;51.592;7.180;2023-05-23T00:55:32;9.98;;;6.22;;
37955;SDS011;23776;51.592;7.180;2023-05-23T00:57:58;8.35;;;5.60;;
37955;SDS011;23776;51.592;7.180;2023-05-23T01:00:24;11.50;;;6.10;;
37955;SDS011;23776;51.592;7.180;2023-05-23T01:02:51;10.40;;;6.45;;
37955;SDS011;23776;51.592;7.180;2023-05-23T01:05:17;8.80;;;5.95;;
37955;SDS011;23776;51.592;7.180;2023-05-23T01:07:44;14.32;;;6.18;;
37955;SDS011;23776;51.592;7.180;2023-05-23T01:10:14;10.55;;;6.00;;
37955;SDS011;23776;51.592;7.180;2023-05-23T01:15:28;12.48;;;6.90;;
37955;SDS011;23776;51.592;7.180;2023-05-23T01:20:48;10.88;;;6.78;;
37955;SDS011;23776;51.592;7.180;2023-05-23T01:28:48;13.48;;;5.95;;
37955;SDS011;23776;51.592;7.180;2023-05-23T01:31:19;10.82;;;6.40;;
37955;SDS011;23776;51.592;7.180;2023-05-23T01:33:48;10.60;;;6.57;;
37955;SDS011;23776;51.592;7.180;2023-05-23T01:36:17;12.43;;;6.93;;
37955;SDS011;23776;51.592;7.180;2023-05-23T01:38:44;12.32;;;7.05;;
37955;SDS011;23776;51.592;7.180;2023-05-23T01:41:09;13.00;;;6.90;;
37955;SDS011;23776;51.592;7.180;2023-05-23T01:43:35;10.50;;;7.10;;
37955;SDS011;23776;51.592;7.180;2023-05-23T01:46:01;10.55;;;6.53;;
37955;SDS011;23776;51.592;7.180;2023-05-23T01:48:28;13.73;;;7.00;;
37955;SDS011;23776;51.592;7.180;2023-05-23T01:50:55;12.23;;;7.40;;
37955;SDS011;23776;51.592;7.180;2023-05-23T01:53:21;12.77;;;6.30;;
37955;SDS011;23776;51.592;7.180;2023-05-23T01:55:48;13.27;;;7.40;;
37955;SDS011;23776;51.592;7.180;2023-05-23T01:58:15;12.85;;;7.47;;
37955;SDS011;23776;51.592;7.180;2023-05-23T02:00:41;11.77;;;7.60;;
37955;SDS011;23776;51.592;7.180;2023-05-23T02:03:06;12.05;;;7.45;;
37955;SDS011;23776;51.592;7.180;2023-05-23T02:05:32;15.50;;;8.25;;
37955;SDS011;23776;51.592;7.180;2023-05-23T02:07:58;18.98;;;8.25;;
37955;SDS011;23776;51.592;7.180;2023-05-23T02:10:23;15.25;;;8.52;;
37955;SDS011;23776;51.592;7.180;2023-05-23T02:12:49;13.63;;;8.07;;
37955;SDS011;23776;51.592;7.180;2023-05-23T02:15:14;14.95;;;8.07;;
37955;SDS011;23776;51.592;7.180;2023-05-23T02:17:41;14.43;;;8.50;;
37955;SDS011;23776;51.592;7.180;2023-05-23T02:20:07;15.48;;;8.85;;
37955;SDS011;23776;51.592;7.180;2023-05-23T02:22:34;17.67;;;8.48;;
37955;SDS011;23776;51.592;7.180;2023-05-23T02:25:00;16.20;;;8.52;;
37955;SDS011;23776;51.592;7.180;2023-05-23T02:27:25;20.23;;;9.73;;
37955;SDS011;23776;51.592;7.180;2023-05-23T02:29:51;20.33;;;9.77;;
37955;SDS011;23776;51.592;7.180;2023-05-23T02:32:17;17.15;;;8.90;;
37955;SDS011;23776;51.592;7.180;2023-05-23T02:34:42;15.05;;;9.18;;
37955;SDS011;23776;51.592;7.180;2023-05-23T02:37:10;20.73;;;10.07;;
37955;SDS011;23776;51.592;7.180;2023-05-23T02:39:39;19.67;;;10.32;;
37955;SDS011;23776;51.592;7.180;2023-05-23T02:42:04;22.33;;;9.77;;
37955;SDS011;23776;51.592;7.180;2023-05-23T02:44:30;24.90;;;11.45;;
37955;SDS011;23776;51.592;7.180;2023-05-23T02:46:55;28.63;;;10.60;;
37955;SDS011;23776;51.592;7.180;2023-05-23T02:49:21;21.08;;;10.65;;
37955;SDS011;23776;51.592;7.180;2023-05-23T02:51:47;20.08;;;11.63;;
37955;SDS011;23776;51.592;7.180;2023-05-23T02:54:12;19.55;;;10.63;;
37955;SDS011;23776;51.592;7.180;2023-05-23T02:56:38;19.75;;;10.73;;
37955;SDS011;23776;51.592;7.180;2023-05-23T02:59:03;22.02;;;10.23;;
37955;SDS011;23776;51.592;7.180;2023-05-23T03:01:29;22.92;;;10.15;;
37955;SDS011;23776;51.592;7.180;2023-05-23T03:03:55;21.80;;;9.52;;
37955;SDS011;23776;51.592;7.180;2023-05-23T03:06:21;19.65;;;8.90;;
37955;SDS011;23776;51.592;7.180;2023-05-23T03:08:46;22.08;;;9.05;;
37955;SDS011;23776;51.592;7.180;2023-05-23T03:11:12;18.73;;;8.27;;
37955;SDS011;23776;51.592;7.180;2023-05-23T03:13:38;18.00;;;8.65;;
37955;SDS011;23776;51.592;7.180;2023-05-23T03:16:04;17.65;;;8.23;;
37955;SDS011;23776;51.592;7.180;2023-05-23T03:18:30;23.02;;;8.93;;
37955;SDS011;23776;51.592;7.180;2023-05-23T03:20:56;15.25;;;7.97;;
37955;SDS011;23776;51.592;7.180;2023-05-23T03:23:21;14.63;;;7.70;;
37955;SDS011;23776;51.592;7.180;2023-05-23T03:25:47;16.70;;;8.52;;
37955;SDS011;23776;51.592;7.180;2023-05-23T03:28:13;16.23;;;7.45;;
37955;SDS011;23776;51.592;7.180;2023-05-23T03:30:39;20.08;;;8.25;;
37955;SDS011;23776;51.592;7.180;2023-05-23T03:33:04;17.98;;;9.23;;
37955;SDS011;23776;51.592;7.180;2023-05-23T03:35:31;21.95;;;8.68;;
37955;SDS011;23776;51.592;7.180;2023-05-23T03:37:56;19.08;;;8.40;;
37955;SDS011;23776;51.592;7.180;2023-05-23T03:40:22;22.48;;;8.27;;
37955;SDS011;23776;51.592;7.180;2023-05-23T03:42:49;15.35;;;8.15;;
37955;SDS011;23776;51.592;7.180;2023-05-23T03:45:27;17.75;;;8.38;;
37955;SDS011;23776;51.592;7.180;2023-05-23T03:47:54;16.02;;;7.97;;
37955;SDS011;23776;51.592;7.180;2023-05-23T03:50:19;17.40;;;8.93;;
37955;SDS011;23776;51.592;7.180;2023-05-23T03:52:45;13.98;;;7.72;;
37955;SDS011;23776;51.592;7.180;2023-05-23T03:55:10;20.13;;;9.15;;
37955;SDS011;23776;51.592;7.180;2023-05-23T03:57:36;17.58;;;8.63;;
37955;SDS011;23776;51.592;7.180;2023-05-23T04:00:02;19.77;;;8.15;;
37955;SDS011;23776;51.592;7.180;2023-05-23T04:02:30;16.98;;;8.32;;
37955;SDS011;23776;51.592;7.180;2023-05-23T04:04:56;16.80;;;7.90;;
37955;SDS011;23776;51.592;7.180;2023-05-23T04:07:22;19.27;;;8.15;;
37955;SDS011;23776;51.592;7.180;2023-05-23T04:09:50;14.40;;;8.50;;
37955;SDS011;23776;51.592;7.180;2023-05-23T04:12:16;19.58;;;9.25;;
37955;SDS011;23776;51.592;7.180;2023-05-23T04:14:41;15.20;;;7.80;;
37955;SDS011;23776;51.592;7.180;2023-05-23T04:17:07;17.85;;;8.80;;
37955;SDS011;23776;51.592;7.180;2023-05-23T04:19:33;20.60;;;8.75;;
37955;SDS011;23776;51.592;7.180;2023-05-23T04:21:59;21.33;;;8.38;;
37955;SDS011;23776;51.592;7.180;2023-05-23T04:24:24;22.17;;;8.90;;
37955;SDS011;23776;51.592;7.180;2023-05-23T04:26:50;13.88;;;7.63;;
37955;SDS011;23776;51.592;7.180;2023-05-23T04:29:15;18.23;;;8.13;;
37955;SDS011;23776;51.592;7.180;2023-05-23T04:31:41;20.67;;;9.80;;
37955;SDS011;23776;51.592;7.180;2023-05-23T04:34:09;21.20;;;9.73;;
37955;SDS011;23776;51.592;7.180;2023-05-23T04:36:35;21.83;;;9.55;;
37955;SDS011;23776;51.592;7.180;2023-05-23T04:39:02;22.88;;;10.00;;
37955;SDS011;23776;51.592;7.180;2023-05-23T04:41:29;20.70;;;9.73;;
37955;SDS011;23776;51.592;7.180;2023-05-23T04:43:55;21.83;;;9.82;;
37955;SDS011;23776;51.592;7.180;2023-05-23T04:46:22;24.80;;;9.88;;
37955;SDS011;23776;51.592;7.180;2023-05-23T04:48:51;22.33;;;9.88;;
37955;SDS011;23776;51.592;7.180;2023-05-23T04:51:18;23.15;;;9.82;;
37955;SDS011;23776;51.592;7.180;2023-05-23T04:53:45;22.88;;;9.85;;
37955;SDS011;23776;51.592;7.180;2023-05-23T04:56:11;26.65;;;10.38;;
37955;SDS011;23776;51.592;7.180;2023-05-23T04:58:37;30.25;;;13.07;;
37955;SDS011;23776;51.592;7.180;2023-05-23T05:01:04;26.20;;;10.48;;
37955;SDS011;23776;51.592;7.180;2023-05-23T05:03:30;24.95;;;12.07;;
37955;SDS011;23776;51.592;7.180;2023-05-23T05:05:56;26.20;;;13.30;;
37955;SDS011;23776;51.592;7.180;2023-05-23T05:08:21;29.23;;;12.30;;
37955;SDS011;23776;51.592;7.180;2023-05-23T05:10:47;33.78;;;13.40;;
37955;SDS011;23776;51.592;7.180;2023-05-23T05:13:13;29.92;;;13.30;;
37955;SDS011;23776;51.592;7.180;2023-05-23T05:15:38;25.75;;;11.65;;
37955;SDS011;23776;51.592;7.180;2023-05-23T05:18:04;31.42;;;13.15;;
37955;SDS011;23776;51.592;7.180;2023-05-23T05:20:30;26.38;;;12.27;;
37955;SDS011;23776;51.592;7.180;2023-05-23T05:22:56;29.08;;;11.93;;
37955;SDS011;23776;51.592;7.180;2023-05-23T05:25:22;29.08;;;13.13;;
37955;SDS011;23776;51.592;7.180;2023-05-23T05:27:48;24.20;;;10.90;;
37955;SDS011;23776;51.592;7.180;2023-05-23T05:30:14;22.45;;;11.45;;
37955;SDS011;23776;51.592;7.180;2023-05-23T05:32:40;30.63;;;11.57;;
37955;SDS011;23776;51.592;7.180;2023-05-23T05:35:06;22.52;;;10.93;;
37955;SDS011;23776;51.592;7.180;2023-05-23T05:37:32;30.42;;;12.50;;
37955;SDS011;23776;51.592;7.180;2023-05-23T05:39:58;25.60;;;12.88;;
37955;SDS011;23776;51.592;7.180;2023-05-23T05:42:30;25.88;;;11.68;;
37955;SDS011;23776;51.592;7.180;2023-05-23T05:44:55;35.92;;;12.73;;
37955;SDS011;23776;51.592;7.180;2023-05-23T05:47:21;23.40;;;10.48;;
37955;SDS011;23776;51.592;7.180;2023-05-23T05:49:46;33.38;;;12.30;;
37955;SDS011;23776;51.592;7.180;2023-05-23T05:52:12;25.80;;;11.07;;
37955;SDS011;23776;51.592;7.180;2023-05-23T05:54:37;24.48;;;11.95;;
37955;SDS011;23776;51.592;7.180;2023-05-23T05:57:03;25.75;;;10.60;;
37955;SDS011;23776;51.592;7.180;2023-05-23T05:59:29;28.60;;;11.85;;
37955;SDS011;23776;51.592;7.180;2023-05-23T06:01:55;31.83;;;12.80;;
37955;SDS011;23776;51.592;7.180;2023-05-23T06:04:20;26.00;;;11.05;;
37955;SDS011;23776;51.592;7.180;2023-05-23T06:06:46;19.85;;;10.48;;
37955;SDS011;23776;51.592;7.180;2023-05-23T06:09:12;22.40;;;10.57;;
37955;SDS011;23776;51.592;7.180;2023-05-23T06:11:37;22.38;;;10.23;;
37955;SDS011;23776;51.592;7.180;2023-05-23T06:14:04;21.98;;;10.70;;
37955;SDS011;23776;51.592;7.180;2023-05-23T06:16:30;23.85;;;10.20;;
37955;SDS011;23776;51.592;7.180;2023-05-23T06:18:56;20.60;;;12.00;;
37955;SDS011;23776;51.592;7.180;2023-05-23T06:21:22;29.35;;;12.98;;
37955;SDS011;23776;51.592;7.180;2023-05-23T06:23:47;21.25;;;10.55;;
37955;SDS011;23776;51.592;7.180;2023-05-23T06:26:13;24.30;;;10.68;;
37955;SDS011;23776;51.592;7.180;2023-05-23T06:28:38;31.90;;;10.32;;
37955;SDS011;23776;51.592;7.180;2023-05-23T06:31:05;18.23;;;9.50;;
37955;SDS011;23776;51.592;7.180;2023-05-23T06:33:31;26.88;;;9.77;;
37955;SDS011;23776;51.592;7.180;2023-05-23T06:35:57;24.58;;;10.38;;
37955;SDS011;23776;51.592;7.180;2023-05-23T06:38:22;18.55;;;10.20;;
37955;SDS011;23776;51.592;7.180;2023-05-23T06:40:50;20.65;;;9.43;;
37955;SDS011;23776;51.592;7.180;2023-05-23T06:43:16;20.90;;;8.45;;
37955;SDS011;23776;51.592;7.180;2023-05-23T06:45:41;23.35;;;9.25;;
37955;SDS011;23776;51.592;7.180;2023-05-23T06:48:09;16.88;;;8.35;;
37955;SDS011;23776;51.592;7.180;2023-05-23T06:50:35;19.85;;;8.75;;
37955;SDS011;23776;51.592;7.180;2023-05-23T06:53:01;16.70;;;8.05;;
37955;SDS011;23776;51.592;7.180;2023-05-23T06:55:27;16.58;;;7.55;;
37955;SDS011;23776;51.592;7.180;2023-05-23T06:57:52;22.77;;;8.63;;
37955;SDS011;23776;51.592;7.180;2023-05-23T07:00:18;22.80;;;11.20;;
37955;SDS011;23776;51.592;7.180;2023-05-23T07:02:44;20.13;;;12.30;;
37955;SDS011;23776;51.592;7.180;2023-05-23T07:05:12;20.88;;;9.13;;
37955;SDS011;23776;51.592;7.180;2023-05-23T07:07:38;15.70;;;7.32;;
37955;SDS011;23776;51.592;7.180;2023-05-23T07:10:04;18.00;;;7.25;;
37955;SDS011;23776;51.592;7.180;2023-05-23T07:12:30;15.38;;;7.88;;
37955;SDS011;23776;51.592;7.180;2023-05-23T07:14:55;15.27;;;7.82;;
37955;SDS011;23776;51.592;7.180;2023-05-23T07:17:22;18.33;;;8.02;;
37955;SDS011;23776;51.592;7.180;2023-05-23T07:19:48;26.42;;;9.13;;
37955;SDS011;23776;51.592;7.180;2023-05-23T07:22:13;24.45;;;9.25;;
37955;SDS011;23776;51.592;7.180;2023-05-23T07:24:39;28.05;;;9.85;;
37955;SDS011;23776;51.592;7.180;2023-05-23T07:27:05;19.67;;;9.48;;
37955;SDS011;23776;51.592;7.180;2023-05-23T07:29:31;23.75;;;8.93;;
37955;SDS011;23776;51.592;7.180;2023-05-23T07:31:57;21.80;;;8.55;;
37955;SDS011;23776;51.592;7.180;2023-05-23T07:34:23;23.73;;;8.82;;
37955;SDS011;23776;51.592;7.180;2023-05-23T07:36:50;24.65;;;8.80;;
37955;SDS011;23776;51.592;7.180;2023-05-23T07:39:16;26.20;;;11.02;;
37955;SDS011;23776;51.592;7.180;2023-05-23T07:41:46;23.30;;;12.57;;
37955;SDS011;23776;51.592;7.180;2023-05-23T07:44:15;24.10;;;11.75;;
37955;SDS011;23776;51.592;7.180;2023-05-23T07:46:42;23.33;;;10.38;;
37955;SDS011;23776;51.592;7.180;2023-05-23T07:49:07;20.00;;;9.15;;
37955;SDS011;23776;51.592;7.180;2023-05-23T07:51:33;18.98;;;8.93;;
37955;SDS011;23776;51.592;7.180;2023-05-23T07:53:58;26.73;;;8.63;;
37955;SDS011;23776;51.592;7.180;2023-05-23T07:56:24;21.02;;;8.75;;
37955;SDS011;23776;51.592;7.180;2023-05-23T07:58:50;22.45;;;9.23;;
37955;SDS011;23776;51.592;7.180;2023-05-23T08:01:16;19.92;;;8.32;;
37955;SDS011;23776;51.592;7.180;2023-05-23T08:03:42;21.15;;;8.15;;
37955;SDS011;23776;51.592;7.180;2023-05-23T08:06:08;17.40;;;7.82;;
37955;SDS011;23776;51.592;7.180;2023-05-23T08:08:34;21.17;;;7.25;;
37955;SDS011;23776;51.592;7.180;2023-05-23T08:11:00;18.95;;;7.38;;
37955;SDS011;23776;51.592;7.180;2023-05-23T08:13:25;27.17;;;8.88;;
37955;SDS011;23776;51.592;7.180;2023-05-23T08:15:51;25.10;;;8.50;;
37955;SDS011;23776;51.592;7.180;2023-05-23T08:18:17;25.70;;;8.75;;
37955;SDS011;23776;51.592;7.180;2023-05-23T08:20:43;17.80;;;6.93;;
37955;SDS011;23776;51.592;7.180;2023-05-23T08:23:08;18.55;;;6.22;;
37955;SDS011;23776;51.592;7.180;2023-05-23T08:25:36;14.20;;;6.75;;
37955;SDS011;23776;51.592;7.180;2023-05-23T08:28:01;17.00;;;6.97;;
37955;SDS011;23776;51.592;7.180;2023-05-23T08:30:27;13.07;;;6.18;;
37955;SDS011;23776;51.592;7.180;2023-05-23T08:32:54;12.98;;;6.20;;
37955;SDS011;23776;51.592;7.180;2023-05-23T08:35:20;12.52;;;6.30;;
37955;SDS011;23776;51.592;7.180;2023-05-23T08:37:47;14.07;;;6.78;;
37955;SDS011;23776;51.592;7.180;2023-05-23T08:40:17;15.27;;;7.15;;
37955;SDS011;23776;51.592;7.180;2023-05-23T08:42:45;14.75;;;7.78;;
37955;SDS011;23776;51.592;7.180;2023-05-23T08:45:12;17.75;;;7.15;;
37955;SDS011;23776;51.592;7.180;2023-05-23T08:47:38;16.65;;;8.18;;
37955;SDS011;23776;51.592;7.180;2023-05-23T08:50:09;21.88;;;7.38;;
37955;SDS011;23776;51.592;7.180;2023-05-23T08:52:39;15.32;;;7.05;;
37955;SDS011;23776;51.592;7.180;2023-05-23T08:55:20;20.47;;;8.93;;
37955;SDS011;23776;51.592;7.180;2023-05-23T08:57:49;20.60;;;8.70;;
37955;SDS011;23776;51.592;7.180;2023-05-23T09:00:16;19.45;;;8.18;;
37955;SDS011;23776;51.592;7.180;2023-05-23T09:02:42;19.20;;;7.43;;
37955;SDS011;23776;51.592;7.180;2023-05-23T09:05:08;19.77;;;8.25;;
37955;SDS011;23776;51.592;7.180;2023-05-23T09:07:35;23.45;;;7.68;;
37955;SDS011;23776;51.592;7.180;2023-05-23T09:10:01;24.77;;;8.82;;
37955;SDS011;23776;51.592;7.180;2023-05-23T09:12:34;23.15;;;9.82;;
37955;SDS011;23776;51.592;7.180;2023-05-23T09:15:05;27.65;;;8.95;;
37955;SDS011;23776;51.592;7.180;2023-05-23T09:17:35;27.35;;;8.50;;
37955;SDS011;23776;51.592;7.180;2023-05-23T09:20:23;24.42;;;10.02;;
37955;SDS011;23776;51.592;7.180;2023-05-23T09:22:47;22.35;;;8.48;;
37955;SDS011;23776;51.592;7.180;2023-05-23T09:25:13;24.70;;;8.82;;
37955;SDS011;23776;51.592;7.180;2023-05-23T09:27:39;26.17;;;9.07;;
37955;SDS011;23776;51.592;7.180;2023-05-23T09:30:06;19.52;;;7.22;;
37955;SDS011;23776;51.592;7.180;2023-05-23T09:32:32;19.65;;;8.10;;
37955;SDS011;23776;51.592;7.180;2023-05-23T09:34:59;19.25;;;8.23;;
37955;SDS011;23776;51.592;7.180;2023-05-23T09:37:29;19.92;;;7.88;;
37955;SDS011;23776;51.592;7.180;2023-05-23T09:39:57;13.90;;;6.43;;
37955;SDS011;23776;51.592;7.180;2023-05-23T09:42:25;24.00;;;7.72;;
37955;SDS011;23776;51.592;7.180;2023-05-23T09:44:57;17.58;;;8.55;;
37955;SDS011;23776;51.592;7.180;2023-05-23T09:47:22;18.98;;;7.43;;
37955;SDS011;23776;51.592;7.180;2023-05-23T09:49:48;22.38;;;7.90;;
37955;SDS011;23776;51.592;7.180;2023-05-23T09:52:15;17.90;;;7.38;;
37955;SDS011;23776;51.592;7.180;2023-05-23T09:54:41;18.13;;;6.50;;
37955;SDS011;23776;51.592;7.180;2023-05-23T09:57:09;26.27;;;9.00;;
37955;SDS011;23776;51.592;7.180;2023-05-23T09:59:37;17.17;;;6.22;;
37955;SDS011;23776;51.592;7.180;2023-05-23T10:02:05;20.13;;;6.70;;
37955;SDS011;23776;51.592;7.180;2023-05-23T10:04:35;17.17;;;6.18;;
37955;SDS011;23776;51.592;7.180;2023-05-23T10:07:23;15.25;;;6.40;;
37955;SDS011;23776;51.592;7.180;2023-05-23T10:09:52;18.48;;;6.90;;
37955;SDS011;23776;51.592;7.180;2023-05-23T10:12:38;21.30;;;8.00;;
37955;SDS011;23776;51.592;7.180;2023-05-23T10:15:10;21.38;;;7.90;;
37955;SDS011;23776;51.592;7.180;2023-05-23T10:20:24;20.48;;;7.00;;
37955;SDS011;23776;51.592;7.180;2023-05-23T10:22:50;21.70;;;6.75;;
37955;SDS011;23776;51.592;7.180;2023-05-23T10:25:17;17.40;;;6.75;;
37955;SDS011;23776;51.592;7.180;2023-05-23T10:27:43;19.73;;;6.57;;
37955;SDS011;23776;51.592;7.180;2023-05-23T10:30:08;16.00;;;6.20;;
37955;SDS011;23776;51.592;7.180;2023-05-23T10:32:35;16.88;;;5.65;;
37955;SDS011;23776;51.592;7.180;2023-05-23T10:40:42;24.13;;;7.68;;
37955;SDS011;23776;51.592;7.180;2023-05-23T10:43:21;17.73;;;7.07;;
37955;SDS011;23776;51.592;7.180;2023-05-23T10:45:53;19.17;;;7.05;;
37955;SDS011;23776;51.592;7.180;2023-05-23T10:51:06;13.95;;;5.70;;
37955;SDS011;23776;51.592;7.180;2023-05-23T10:53:42;11.32;;;5.10;;
37955;SDS011;23776;51.592;7.180;2023-05-23T10:56:10;19.42;;;5.05;;
37955;SDS011;23776;51.592;7.180;2023-05-23T10:58:51;12.68;;;5.18;;
37955;SDS011;23776;51.592;7.180;2023-05-23T11:01:17;16.27;;;5.35;;
37955;SDS011;23776;51.592;7.180;2023-05-23T11:06:27;13.55;;;4.47;;
37955;SDS011;23776;51.592;7.180;2023-05-23T11:09:04;9.70;;;4.70;;
37955;SDS011;23776;51.592;7.180;2023-05-23T11:14:19;16.08;;;4.45;;
37955;SDS011;23776;51.592;7.180;2023-05-23T11:16:55;17.90;;;4.93;;
37955;SDS011;23776;51.592;7.180;2023-05-23T11:19:21;10.18;;;4.13;;
37955;SDS011;23776;51.592;7.180;2023-05-23T11:21:53;11.57;;;4.05;;
37955;SDS011;23776;51.592;7.180;2023-05-23T11:24:21;11.27;;;3.65;;
37955;SDS011;23776;51.592;7.180;2023-05-23T11:26:51;18.67;;;4.60;;
37955;SDS011;23776;51.592;7.180;2023-05-23T11:29:28;16.92;;;4.65;;
37955;SDS011;23776;51.592;7.180;2023-05-23T11:31:55;9.85;;;3.50;;
37955;SDS011;23776;51.592;7.180;2023-05-23T11:34:21;15.45;;;3.83;;
37955;SDS011;23776;51.592;7.180;2023-05-23T11:36:53;11.65;;;3.67;;
37955;SDS011;23776;51.592;7.180;2023-05-23T11:39:19;18.20;;;4.13;;
37955;SDS011;23776;51.592;7.180;2023-05-23T11:41:49;17.40;;;4.22;;
37955;SDS011;23776;51.592;7.180;2023-05-23T11:44:35;13.00;;;4.20;;
37955;SDS011;23776;51.592;7.180;2023-05-23T11:47:01;13.82;;;5.20;;
37955;SDS011;23776;51.592;7.180;2023-05-23T11:49:31;14.27;;;3.97;;
37955;SDS011;23776;51.592;7.180;2023-05-23T11:52:02;13.35;;;4.03;;
37955;SDS011;23776;51.592;7.180;2023-05-23T11:54:28;19.48;;;4.70;;
37955;SDS011;23776;51.592;7.180;2023-05-23T11:56:54;16.33;;;4.20;;
37955;SDS011;23776;51.592;7.180;2023-05-23T11:59:20;21.77;;;4.47;;
37955;SDS011;23776;51.592;7.180;2023-05-23T12:01:48;15.60;;;3.45;;
37955;SDS011;23776;51.592;7.180;2023-05-23T12:04:13;10.20;;;3.13;;
37955;SDS011;23776;51.592;7.180;2023-05-23T12:06:39;10.32;;;3.20;;
37955;SDS011;23776;51.592;7.180;2023-05-23T12:09:15;13.50;;;4.07;;
37955;SDS011;23776;51.592;7.180;2023-05-23T12:11:41;11.73;;;3.58;;
37955;SDS011;23776;51.592;7.180;2023-05-23T12:14:08;11.90;;;3.75;;
37955;SDS011;23776;51.592;7.180;2023-05-23T12:16:37;9.90;;;3.35;;
37955;SDS011;23776;51.592;7.180;2023-05-23T12:19:03;18.02;;;4.53;;
37955;SDS011;23776;51.592;7.180;2023-05-23T12:21:40;12.15;;;3.67;;
37955;SDS011;23776;51.592;7.180;2023-05-23T12:26:46;17.98;;;3.92;;
37955;SDS011;23776;51.592;7.180;2023-05-23T12:29:12;12.93;;;4.32;;
37955;SDS011;23776;51.592;7.180;2023-05-23T12:31:37;8.38;;;3.15;;
37955;SDS011;23776;51.592;7.180;2023-05-23T12:34:03;12.27;;;4.55;;
37955;SDS011;23776;51.592;7.180;2023-05-23T12:36:28;19.08;;;4.65;;
37955;SDS011;23776;51.592;7.180;2023-05-23T12:39:01;9.20;;;3.22;;
37955;SDS011;23776;51.592;7.180;2023-05-23T12:41:28;10.95;;;3.47;;
37955;SDS011;23776;51.592;7.180;2023-05-23T12:43:54;11.40;;;3.65;;
37955;SDS011;23776;51.592;7.180;2023-05-23T12:46:21;13.88;;;3.53;;
37955;SDS011;23776;51.592;7.180;2023-05-23T12:48:48;15.45;;;3.42;;
37955;SDS011;23776;51.592;7.180;2023-05-23T12:51:14;11.65;;;3.53;;
37955;SDS011;23776;51.592;7.180;2023-05-23T12:53:40;11.30;;;3.28;;
37955;SDS011;23776;51.592;7.180;2023-05-23T12:56:06;12.43;;;3.05;;
37955;SDS011;23776;51.592;7.180;2023-05-23T12:58:31;13.88;;;3.92;;
37955;SDS011;23776;51.592;7.180;2023-05-23T13:00:58;14.35;;;3.40;;
37955;SDS011;23776;51.592;7.180;2023-05-23T13:03:24;9.40;;;3.63;;
37955;SDS011;23776;51.592;7.180;2023-05-23T13:05:50;11.00;;;3.22;;
37955;SDS011;23776;51.592;7.180;2023-05-23T13:08:16;10.65;;;2.85;;
37955;SDS011;23776;51.592;7.180;2023-05-23T13:10:43;10.68;;;3.30;;
37955;SDS011;23776;51.592;7.180;2023-05-23T13:13:09;12.70;;;3.22;;
37955;SDS011;23776;51.592;7.180;2023-05-23T13:15:34;17.77;;;4.10;;
37955;SDS011;23776;51.592;7.180;2023-05-23T13:18:01;13.07;;;3.60;;
37955;SDS011;23776;51.592;7.180;2023-05-23T13:20:27;10.85;;;2.90;;
37955;SDS011;23776;51.592;7.180;2023-05-23T13:22:54;15.85;;;3.30;;
37955;SDS011;23776;51.592;7.180;2023-05-23T13:25:21;17.45;;;3.85;;
37955;SDS011;23776;51.592;7.180;2023-05-23T13:27:46;10.05;;;3.08;;
37955;SDS011;23776;51.592;7.180;2023-05-23T13:30:12;11.75;;;3.72;;
37955;SDS011;23776;51.592;7.180;2023-05-23T13:32:38;12.45;;;3.42;;
37955;SDS011;23776;51.592;7.180;2023-05-23T13:35:05;19.73;;;3.47;;
37955;SDS011;23776;51.592;7.180;2023-05-23T13:37:31;9.88;;;2.65;;
37955;SDS011;23776;51.592;7.180;2023-05-23T13:39:56;17.75;;;3.80;;
37955;SDS011;23776;51.592;7.180;2023-05-23T13:42:22;12.25;;;3.78;;
37955;SDS011;23776;51.592;7.180;2023-05-23T13:44:47;15.82;;;3.30;;
37955;SDS011;23776;51.592;7.180;2023-05-23T13:47:13;11.65;;;3.00;;
37955;SDS011;23776;51.592;7.180;2023-05-23T13:49:40;11.70;;;3.45;;
37955;SDS011;23776;51.592;7.180;2023-05-23T13:52:06;13.80;;;3.58;;
37955;SDS011;23776;51.592;7.180;2023-05-23T13:54:32;17.35;;;3.72;;
37955;SDS011;23776;51.592;7.180;2023-05-23T13:56:58;10.45;;;2.72;;
37955;SDS011;23776;51.592;7.180;2023-05-23T13:59:27;11.05;;;3.83;;
37955;SDS011;23776;51.592;7.180;2023-05-23T14:01:53;9.13;;;2.90;;
37955;SDS011;23776;51.592;7.180;2023-05-23T14:04:18;11.88;;;3.10;;
37955;SDS011;23776;51.592;7.180;2023-05-23T14:06:44;12.63;;;3.63;;
37955;SDS011;23776;51.592;7.180;2023-05-23T14:09:10;11.68;;;2.90;;
37955;SDS011;23776;51.592;7.180;2023-05-23T14:11:37;9.55;;;3.20;;
37955;SDS011;23776;51.592;7.180;2023-05-23T14:14:03;9.70;;;2.90;;
37955;SDS011;23776;51.592;7.180;2023-05-23T14:16:28;8.77;;;2.85;;
37955;SDS011;23776;51.592;7.180;2023-05-23T14:18:54;8.43;;;3.00;;
37955;SDS011;23776;51.592;7.180;2023-05-23T14:21:20;12.27;;;3.25;;
37955;SDS011;23776;51.592;7.180;2023-05-23T14:23:46;14.07;;;3.85;;
37955;SDS011;23776;51.592;7.180;2023-05-23T14:26:12;16.48;;;4.55;;
37955;SDS011;23776;51.592;7.180;2023-05-23T14:28:37;7.85;;;3.08;;
37955;SDS011;23776;51.592;7.180;2023-05-23T14:31:03;13.45;;;3.53;;
37955;SDS011;23776;51.592;7.180;2023-05-23T14:33:29;8.93;;;2.90;;
37955;SDS011;23776;51.592;7.180;2023-05-23T14:35:55;15.07;;;3.40;;
37955;SDS011;23776;51.592;7.180;2023-05-23T14:38:20;11.02;;;3.25;;
37955;SDS011;23776;51.592;7.180;2023-05-23T14:40:46;8.65;;;2.72;;
37955;SDS011;23776;51.592;7.180;2023-05-23T14:43:12;15.98;;;3.15;;
37955;SDS011;23776;51.592;7.180;2023-05-23T14:45:38;16.50;;;3.05;;
37955;SDS011;23776;51.592;7.180;2023-05-23T14:48:04;9.30;;;2.65;;
37955;SDS011;23776;51.592;7.180;2023-05-23T14:50:30;9.60;;;3.08;;
37955;SDS011;23776;51.592;7.180;2023-05-23T14:52:56;10.35;;;3.10;;
37955;SDS011;23776;51.592;7.180;2023-05-23T14:55:21;13.18;;;3.40;;
37955;SDS011;23776;51.592;7.180;2023-05-23T14:57:48;17.23;;;3.25;;
37955;SDS011;23776;51.592;7.180;2023-05-23T15:00:13;10.10;;;3.10;;
37955;SDS011;23776;51.592;7.180;2023-05-23T15:02:39;12.52;;;2.90;;